createdAt,value
2016-04-14T00:00:58.580Z,85.64
2016-04-14T00:01:57.550Z,86.03
2016-04-14T00:02:57.553Z,86.26
2016-04-14T00:03:57.524Z,86.41
2016-04-14T00:04:57.527Z,86.6
2016-04-14T00:05:57.514Z,86.88
2016-04-14T00:06:57.533Z,87.07
2016-04-14T00:07:57.504Z,87.46
2016-04-14T00:09:57.508Z,87.07
2016-04-14T00:10:57.510Z,87.55
2016-04-14T00:11:58.544Z,87.93
2016-04-14T00:12:57.500Z,87.17
2016-04-14T00:13:57.487Z,88.03
2016-04-14T00:14:57.490Z,87.84
2016-04-14T00:15:57.477Z,87.93
2016-04-14T00:16:57.479Z,87.84
2016-04-14T00:17:57.466Z,88.03
2016-04-14T00:18:57.469Z,88.41
2016-04-14T00:20:11.207Z,88.6
2016-04-14T00:20:57.459Z,88.31
2016-04-14T00:21:57.462Z,88.79
2016-04-14T00:22:57.465Z,89.17
2016-04-14T00:23:57.451Z,88.7
2016-04-14T00:24:57.454Z,88.98
2016-04-14T00:25:57.441Z,88.89
2016-04-14T00:26:57.429Z,88.7
2016-04-14T00:27:57.431Z,89.31
2016-04-14T00:28:57.417Z,88.89
2016-04-14T00:29:57.437Z,89.55
2016-04-14T00:30:57.423Z,89.4
2016-04-14T00:31:57.425Z,89.6
2016-04-14T00:32:57.414Z,89.4
2016-04-14T00:33:57.431Z,89.6
2016-04-14T00:34:57.403Z,89.6
2016-04-14T00:35:57.441Z,89.5
2016-04-14T00:36:57.274Z,89.98
2016-04-14T00:37:56.668Z,89.98
2016-04-14T00:38:57.390Z,89.89
2016-04-14T00:39:57.235Z,89.98
2016-04-14T00:40:57.395Z,89.6
2016-04-14T00:41:57.382Z,90.26
2016-04-14T00:42:57.384Z,89.89
2016-04-14T00:43:57.371Z,90.55
2016-04-14T00:44:57.374Z,90.36
2016-04-14T00:45:57.377Z,90.17
2016-04-14T00:46:57.365Z,90.08
2016-04-14T00:47:57.367Z,90.36
2016-04-14T00:48:57.354Z,90.36
2016-04-14T00:49:57.357Z,90.84
2016-04-14T00:50:57.359Z,90.74
2016-04-14T00:51:57.345Z,90.74
2016-04-14T00:52:57.334Z,90.36
2016-04-14T00:53:57.351Z,90.64
2016-04-14T00:54:57.339Z,90.64
2016-04-14T00:55:57.325Z,90.36
2016-04-14T00:56:57.328Z,90.36
2016-04-14T00:57:57.331Z,90.26
2016-04-14T00:58:57.333Z,90.08
2016-04-14T00:59:57.321Z,90.45
2016-04-14T01:00:57.324Z,90.17
2016-04-14T01:02:11.497Z,90.55
2016-04-14T01:02:57.500Z,91.03
2016-04-14T01:03:57.316Z,91.03
2016-04-14T01:04:57.318Z,90.84
2016-04-14T01:05:57.306Z,90.84
2016-04-14T01:06:57.824Z,91.13
2016-04-14T01:07:57.280Z,90.74
2016-04-14T01:08:57.282Z,90.64
2016-04-14T01:09:57.301Z,91.22
2016-04-14T01:10:57.288Z,91.31
2016-04-14T01:11:57.274Z,91.31
2016-04-14T01:12:57.574Z,91.13
2016-04-14T01:13:57.265Z,91.13
2016-04-14T01:14:57.954Z,91.22
2016-04-14T01:15:57.254Z,91.22
2016-04-14T01:16:57.663Z,91.13
2016-04-14T01:17:58.056Z,91.31
2016-04-14T01:18:58.694Z,91.41
2016-04-14T01:19:57.244Z,91.22
2016-04-14T01:20:57.653Z,90.93
2016-04-14T01:21:57.639Z,91.03
2016-04-14T01:22:57.236Z,91.22
2016-04-14T01:23:57.677Z,91.03
2016-04-14T01:24:57.272Z,91.13
2016-04-14T01:25:57.228Z,91.79
2016-04-14T01:26:57.231Z,91.88
2016-04-14T01:27:58.421Z,91.79
2016-04-14T01:28:58.455Z,91.6
2016-04-14T01:29:57.818Z,91.79
2016-04-14T01:30:57.210Z,91.41
2016-04-14T01:31:57.245Z,91.88
2016-04-14T01:32:57.232Z,91.69
2016-04-14T01:33:57.204Z,91.79
2016-04-14T01:34:57.190Z,91.69
2016-04-14T01:35:57.177Z,91.6
2016-04-14T01:36:57.196Z,91.5
2016-04-14T01:37:57.260Z,91.13
2016-04-14T01:38:57.185Z,92.17
2016-04-14T01:39:57.173Z,92.27
2016-04-14T01:40:57.175Z,92.08
2016-04-14T01:41:57.178Z,92.08
2016-04-14T01:42:57.165Z,92.08
2016-04-14T01:43:57.168Z,92.08
2016-04-14T01:44:57.154Z,91.98
2016-04-14T01:45:57.157Z,92.17
2016-04-14T01:46:57.144Z,92.08
2016-04-14T01:47:57.162Z,92.08
2016-04-14T01:48:57.150Z,92.08
2016-04-14T01:49:57.153Z,91.88
2016-04-14T01:50:57.139Z,91.98
2016-04-14T01:51:57.142Z,92.17
2016-04-14T01:52:57.145Z,91.88
2016-04-14T01:53:57.132Z,92.08
2016-04-14T01:54:57.135Z,91.79
2016-04-14T01:55:57.121Z,92.46
2016-04-14T01:56:57.125Z,92.46
2016-04-14T01:57:57.111Z,92.46
2016-04-14T01:58:57.114Z,92.46
2016-04-14T01:59:57.102Z,92.36
2016-04-14T02:00:57.104Z,92.17
2016-04-14T02:01:57.091Z,92.22
2016-04-14T02:02:57.094Z,92.22
2016-04-14T02:03:57.096Z,92.36
2016-04-14T02:04:57.099Z,92.32
2016-04-14T02:05:57.085Z,92.13
2016-04-14T02:06:57.073Z,92.5
2016-04-14T02:07:57.091Z,92.6
2016-04-14T02:08:57.063Z,92.32
2016-04-14T02:09:57.081Z,92.22
2016-04-14T02:10:57.068Z,92.41
2016-04-14T02:11:57.070Z,92.41
2016-04-14T02:12:57.058Z,92.22
2016-04-14T02:13:57.061Z,92.32
2016-04-14T02:14:57.048Z,92.13
2016-04-14T02:15:57.051Z,92.03
2016-04-14T02:16:57.038Z,92.13
2016-04-14T02:17:57.040Z,92.79
2016-04-14T02:18:57.042Z,92.32
2016-04-14T02:19:57.031Z,92.5
2016-04-14T02:20:57.126Z,92.41
2016-04-14T02:21:57.036Z,92.5
2016-04-14T02:22:57.476Z,92.5
2016-04-14T02:23:57.509Z,92.89
2016-04-14T02:24:57.153Z,92.32
2016-04-14T02:25:57.014Z,92.32
2016-04-14T02:26:57.002Z,92.27
2016-04-14T02:27:57.019Z,92.46
2016-04-14T02:28:57.008Z,92.36
2016-04-14T02:29:57.057Z,92.74
2016-04-14T02:30:58.137Z,92.74
2016-04-14T02:31:57.938Z,93.03
2016-04-14T02:32:57.221Z,92.94
2016-04-14T02:33:56.974Z,92.94
2016-04-14T02:34:56.977Z,92.65
2016-04-14T02:35:57.276Z,92.65
2016-04-14T02:36:58.232Z,92.65
2016-04-14T02:37:57.188Z,92.65
2016-04-14T02:38:57.956Z,93.13
2016-04-14T02:39:58.084Z,93.13
2016-04-14T02:40:57.196Z,92.94
2016-04-14T02:41:56.948Z,93.32
2016-04-14T02:42:56.951Z,93.18
2016-04-14T02:43:56.938Z,93.41
2016-04-14T02:44:56.925Z,93.18
2016-04-14T02:45:56.928Z,93.37
2016-04-14T02:46:57.071Z,93.79
2016-04-14T02:47:56.917Z,93.55
2016-04-14T02:48:58.201Z,93.55
2016-04-14T02:49:56.923Z,93.55
2016-04-14T02:50:56.441Z,93.55
2016-04-14T02:51:56.898Z,93.94
2016-04-14T02:52:57.025Z,93.65
2016-04-14T02:53:56.887Z,93.94
2016-04-14T02:54:56.889Z,93.55
2016-04-14T02:55:56.892Z,93.84
2016-04-14T02:56:56.880Z,94.22
2016-04-14T02:57:56.882Z,94.03
2016-04-14T02:58:56.885Z,93.84
2016-04-14T02:59:56.888Z,93.94
2016-04-14T03:00:56.844Z,94.03
2016-04-14T03:01:56.861Z,93.94
2016-04-14T03:02:56.849Z,93.84
2016-04-14T03:03:56.835Z,93.84
2016-04-14T03:04:56.839Z,93.84
2016-04-14T03:05:56.841Z,93.94
2016-04-14T03:06:56.828Z,94.03
2016-04-14T03:07:56.816Z,94.32
2016-04-14T03:08:56.818Z,93.74
2016-04-14T03:09:56.821Z,94.32
2016-04-14T03:10:56.807Z,94.51
2016-04-14T03:11:56.810Z,94.6
2016-04-14T03:12:56.797Z,94.7
2016-04-14T03:13:56.801Z,94.51
2016-04-14T03:14:56.787Z,94.7
2016-04-14T03:15:56.789Z,94.42
2016-04-14T03:16:56.777Z,95.03
2016-04-14T03:17:56.779Z,94.93
2016-04-14T03:18:56.767Z,94.74
2016-04-14T03:19:56.770Z,94.74
2016-04-14T03:20:56.756Z,94.84
2016-04-14T03:21:56.759Z,94.56
2016-04-14T03:22:56.762Z,94.74
2016-04-14T03:23:56.749Z,94.56
2016-04-14T03:24:56.736Z,94.46
2016-04-14T03:25:56.723Z,94.6
2016-04-14T03:26:56.741Z,95.32
2016-04-14T03:27:56.729Z,95.12
2016-04-14T03:28:56.716Z,95.27
2016-04-14T03:29:56.719Z,94.98
2016-04-14T03:30:56.721Z,94.79
2016-04-14T03:31:56.708Z,94.98
2016-04-14T03:32:56.711Z,95.03
2016-04-14T03:33:56.697Z,94.79
2016-04-14T03:34:56.700Z,95.12
2016-04-14T03:35:56.687Z,94.89
2016-04-14T03:36:56.690Z,95.12
2016-04-14T03:37:56.677Z,95.32
2016-04-14T03:38:56.680Z,94.84
2016-04-14T03:39:56.667Z,95.89
2016-04-14T03:40:57.248Z,95.41
2016-04-14T03:42:56.721Z,95.41
2016-04-14T03:43:57.193Z,95.6
2016-04-14T03:44:56.649Z,95.51
2016-04-14T03:45:56.651Z,95.6
2016-04-14T03:46:56.624Z,95.51
2016-04-14T03:47:56.626Z,95.51
2016-04-14T03:48:56.628Z,95.7
2016-04-14T03:49:56.788Z,95.89
2016-04-14T03:50:56.618Z,95.75
2016-04-14T03:52:56.608Z,95.98
2016-04-14T03:53:56.611Z,95.32
2016-04-14T03:54:57.083Z,95.41
2016-04-14T03:55:56.711Z,95.51
2016-04-14T03:56:57.369Z,95.6
2016-04-14T03:57:56.590Z,95.6
2016-04-14T03:58:56.577Z,95.32
2016-04-14T03:59:57.361Z,95.51
2016-04-14T04:00:56.583Z,95.79
2016-04-14T04:01:56.569Z,95.17
2016-04-14T04:02:56.557Z,95.84
2016-04-14T04:03:56.575Z,95.84
2016-04-14T04:05:58.174Z,95.94
2016-04-14T04:06:57.474Z,95.94
2016-04-14T04:07:56.538Z,95.7
2016-04-14T04:08:56.558Z,95.79
2016-04-14T04:09:56.529Z,95.98
2016-04-14T04:10:56.531Z,95.79
2016-04-14T04:11:56.519Z,95.89
2016-04-14T04:12:56.724Z,95.89
2016-04-14T04:13:56.509Z,95.98
2016-04-14T04:14:56.496Z,95.7
2016-04-14T04:15:56.498Z,95.79
2016-04-14T04:16:56.501Z,95.7
2016-04-14T04:17:56.488Z,95.89
2016-04-14T04:18:56.490Z,95.89
2016-04-14T04:19:56.478Z,95.6
2016-04-14T04:20:56.481Z,95.79
2016-04-14T04:21:56.468Z,95.79
2016-04-14T04:22:56.470Z,95.84
2016-04-14T04:23:56.442Z,95.56
2016-04-14T04:24:56.444Z,95.94
2016-04-14T04:25:56.447Z,96.03
2016-04-14T04:26:56.434Z,95.56
2016-04-14T04:27:56.437Z,95.56
2016-04-14T04:28:56.439Z,96.12
2016-04-14T04:29:56.426Z,96.6
2016-04-14T04:30:56.430Z,96.51
2016-04-14T04:31:56.416Z,96.31
2016-04-14T04:32:56.419Z,96.03
2016-04-14T04:33:56.406Z,96.41
2016-04-14T04:34:56.408Z,96.31
2016-04-14T04:35:56.411Z,96.41
2016-04-14T04:36:56.399Z,96.41
2016-04-14T04:37:56.401Z,96.31
2016-04-14T04:38:56.388Z,96.12
2016-04-14T04:39:56.374Z,96.51
2016-04-14T04:40:56.549Z,96.31
2016-04-14T04:41:55.646Z,96.31
2016-04-14T04:42:56.368Z,96.41
2016-04-14T04:43:56.370Z,96.41
2016-04-14T04:44:56.357Z,96.12
2016-04-14T04:45:56.360Z,96.22
2016-04-14T04:46:56.347Z,96.31
2016-04-14T04:47:56.365Z,96.03
2016-04-14T04:48:56.321Z,96.12
2016-04-14T04:49:56.339Z,96.51
2016-04-14T04:50:56.326Z,96.12
2016-04-14T04:51:56.329Z,96.22
2016-04-14T04:52:56.317Z,95.94
2016-04-14T04:53:56.319Z,96.6
2016-04-14T04:54:56.306Z,96.6
2016-04-14T04:55:56.387Z,96.41
2016-04-14T04:56:56.295Z,96.51
2016-04-14T04:57:56.298Z,96.51
2016-04-14T04:58:56.535Z,96.6
2016-04-14T04:59:56.288Z,96.51
2016-04-14T05:00:56.276Z,96.6
2016-04-14T05:01:56.278Z,96.51
2016-04-14T05:02:56.265Z,96.31
2016-04-14T05:03:56.269Z,96.31
2016-04-14T05:04:56.255Z,96.6
2016-04-14T05:05:56.258Z,96.22
2016-04-14T05:06:56.260Z,96.41
2016-04-14T05:07:56.857Z,96.22
2016-04-14T05:08:56.234Z,96.51
2016-04-14T05:09:56.597Z,96.22
2016-04-14T05:10:56.240Z,96.51
2016-04-14T05:11:56.383Z,96.51
2016-04-14T05:12:56.228Z,96.51
2016-04-14T05:13:56.260Z,96.31
2016-04-14T05:15:56.354Z,96.31
2016-04-14T05:16:56.511Z,96.22
2016-04-14T05:17:56.423Z,96.41
2016-04-14T05:18:56.803Z,97.08
2016-04-14T05:19:56.446Z,96.98
2016-04-14T05:20:56.449Z,96.6
2016-04-14T05:21:56.468Z,96.6
2016-04-14T05:22:56.484Z,96.79
2016-04-14T05:23:57.867Z,96.7
2016-04-14T05:24:57.172Z,96.98
2016-04-14T05:25:56.477Z,96.79
2016-04-14T05:26:57.001Z,96.7
2016-04-14T05:27:56.806Z,96.79
2016-04-14T05:28:56.483Z,96.94
2016-04-14T05:29:56.471Z,96.65
2016-04-14T05:30:56.462Z,96.75
2016-04-14T05:31:56.467Z,96.84
2016-04-14T05:32:56.486Z,96.41
2016-04-14T05:33:56.458Z,96.51
2016-04-14T05:34:56.478Z,96.6
2016-04-14T05:35:56.451Z,96.41
2016-04-14T05:36:56.454Z,96.79
2016-04-14T05:37:56.441Z,97.08
2016-04-14T05:38:56.428Z,96.79
2016-04-14T05:39:56.447Z,97.17
2016-04-14T05:40:56.433Z,97.27
2016-04-14T05:41:56.436Z,96.7
2016-04-14T05:42:56.423Z,96.89
2016-04-14T05:43:56.426Z,96.89
2016-04-14T05:44:56.413Z,96.94
2016-04-14T05:45:56.400Z,96.94
2016-04-14T05:46:56.435Z,96.75
2016-04-14T05:47:56.405Z,96.79
2016-04-14T05:48:56.393Z,96.79
2016-04-14T05:49:55.661Z,96.94
2016-04-14T05:50:56.398Z,97.13
2016-04-14T05:51:56.385Z,96.84
2016-04-14T05:52:56.373Z,97.13
2016-04-14T05:53:56.375Z,96.75
2016-04-14T05:54:56.362Z,97.03
2016-04-14T05:55:56.380Z,96.84
2016-04-14T05:56:56.367Z,97.03
2016-04-14T05:57:56.370Z,97.03
2016-04-14T05:58:56.342Z,97.51
2016-04-14T05:59:56.345Z,97.03
2016-04-14T06:00:56.331Z,96.84
2016-04-14T06:01:56.350Z,97.22
2016-04-14T06:02:56.337Z,97.13
2016-04-14T06:03:56.323Z,97.31
2016-04-14T06:04:56.358Z,96.94
2016-04-14T06:05:56.328Z,96.65
2016-04-14T06:06:56.316Z,97.03
2016-04-14T06:07:56.318Z,97.31
2016-04-14T06:08:56.305Z,97.13
2016-04-14T06:09:56.308Z,97.13
2016-04-14T06:10:56.295Z,97.31
2016-04-14T06:11:56.298Z,97.31
2016-04-14T06:12:56.301Z,97.31
2016-04-14T06:13:56.287Z,97.31
2016-04-14T06:14:56.274Z,97.31
2016-04-14T06:15:56.277Z,97.31
2016-04-14T06:16:56.280Z,97.22
2016-04-14T06:17:57.235Z,97.27
2016-04-14T06:18:56.255Z,97.13
2016-04-14T06:19:56.257Z,97.27
2016-04-14T06:20:56.260Z,97.51
2016-04-14T06:21:56.465Z,97.31
2016-04-14T06:22:56.249Z,97.27
2016-04-14T06:23:56.252Z,97.08
2016-04-14T06:24:56.240Z,97.17
2016-04-14T06:25:56.227Z,97.08
2016-04-14T06:26:56.979Z,97.08
2016-04-14T06:27:56.935Z,97.08
2016-04-14T06:28:56.220Z,96.98
2016-04-14T06:29:56.425Z,96.89
2016-04-14T06:30:56.396Z,96.89
2016-04-14T06:31:56.258Z,96.98
2016-04-14T06:32:56.183Z,97.08
2016-04-14T06:34:56.188Z,96.94
2016-04-14T06:35:56.191Z,96.74
2016-04-14T06:36:57.208Z,97.13
2016-04-14T06:37:56.180Z,97.22
2016-04-14T06:38:56.167Z,97.03
2016-04-14T06:39:56.170Z,97.22
2016-04-14T06:40:56.158Z,97.22
2016-04-14T06:41:56.160Z,97.27
2016-04-14T06:43:57.243Z,97.22
2016-04-14T06:44:56.152Z,97.22
2016-04-14T06:45:56.530Z,97.22
2016-04-14T06:46:56.158Z,96.94
2016-04-14T06:47:56.129Z,97.22
2016-04-14T06:48:56.116Z,96.84
2016-04-14T06:49:56.118Z,97.22
2016-04-14T06:50:56.293Z,97.13
2016-04-14T06:51:56.124Z,97.13
2016-04-14T06:52:56.112Z,97.13
2016-04-14T06:53:56.099Z,97.22
2016-04-14T06:54:56.101Z,96.94
2016-04-14T06:55:56.088Z,97.13
2016-04-14T06:56:56.091Z,97.13
2016-04-14T06:57:56.078Z,97.5
2016-04-14T06:58:56.082Z,97.69
2016-04-14T06:59:56.068Z,97.22
2016-04-14T07:00:56.071Z,97.41
2016-04-14T07:01:56.059Z,97.46
2016-04-14T07:02:56.045Z,97.36
2016-04-14T07:03:56.065Z,97.46
2016-04-14T07:04:56.051Z,97.36
2016-04-14T07:05:56.038Z,97.46
2016-04-14T07:06:56.052Z,97.55
2016-04-14T07:07:56.070Z,97.55
2016-04-14T07:08:56.036Z,97.46
2016-04-14T07:09:56.022Z,97.55
2016-04-14T07:10:56.030Z,97.46
2016-04-14T07:11:56.019Z,97.36
2016-04-14T07:12:56.006Z,97.46
2016-04-14T07:13:56.001Z,96.98
2016-04-14T07:14:56.003Z,97.36
2016-04-14T07:15:55.990Z,97.17
2016-04-14T07:16:56.007Z,97.46
2016-04-14T07:17:55.991Z,97.46
2016-04-14T07:18:55.994Z,97.46
2016-04-14T07:19:55.966Z,97.46
2016-04-14T07:20:55.968Z,97.46
2016-04-14T07:21:55.971Z,97.46
2016-04-14T07:22:55.957Z,97.36
2016-04-14T07:23:55.960Z,97.46
2016-04-14T07:24:55.948Z,97.65
2016-04-14T07:25:55.950Z,97.46
2016-04-14T07:26:56.218Z,97.46
2016-04-14T07:27:55.939Z,97.74
2016-04-14T07:28:55.942Z,97.46
2016-04-14T07:29:55.914Z,97.46
2016-04-14T07:30:55.932Z,97.03
2016-04-14T07:31:55.919Z,97.55
2016-04-14T07:32:55.922Z,96.98
2016-04-14T07:33:55.909Z,97.41
2016-04-14T07:34:55.896Z,97.41
2016-04-14T07:35:55.899Z,97.41
2016-04-14T07:36:56.386Z,97.41
2016-04-14T07:37:56.592Z,97.69
2016-04-14T07:38:56.142Z,97.46
2016-04-14T07:39:56.223Z,97.69
2016-04-14T07:40:56.069Z,97.46
2016-04-14T07:41:55.853Z,97.22
2016-04-14T07:42:55.855Z,97.41
2016-04-14T07:43:55.858Z,97.13
2016-04-14T07:44:55.861Z,97.31
2016-04-14T07:45:56.551Z,97.74
2016-04-14T07:46:56.241Z,97.41
2016-04-14T07:48:55.824Z,97.17
2016-04-14T07:49:55.858Z,97.46
2016-04-14T07:50:56.126Z,97.36
2016-04-14T07:51:55.833Z,97.6
2016-04-14T07:52:55.804Z,97.41
2016-04-14T07:53:55.807Z,97.6
2016-04-14T07:54:55.810Z,97.36
2016-04-14T07:55:56.546Z,97.65
2016-04-14T07:56:55.799Z,97.36
2016-04-14T07:57:55.786Z,97.65
2016-04-14T07:58:55.789Z,97.65
2016-04-14T07:59:55.791Z,97.31
2016-04-14T08:00:55.778Z,97.6
2016-04-14T08:01:55.750Z,97.41
2016-04-14T08:02:56.550Z,97.55
2016-04-14T08:03:55.990Z,97.6
2016-04-14T08:04:56.336Z,97.84
2016-04-14T08:05:55.761Z,97.27
2016-04-14T08:06:55.748Z,97.27
2016-04-14T08:07:55.735Z,97.46
2016-04-14T08:08:55.750Z,97.65
2016-04-14T08:09:55.715Z,97.46
2016-04-14T08:10:55.734Z,97.46
2016-04-14T08:11:55.720Z,97.65
2016-04-14T08:12:55.708Z,97.74
2016-04-14T08:13:55.711Z,98.03
2016-04-14T08:14:55.728Z,97.74
2016-04-14T08:15:55.700Z,98.22
2016-04-14T08:16:55.703Z,97.84
2016-04-14T08:17:55.690Z,97.99
2016-04-14T08:18:55.692Z,97.7
2016-04-14T08:19:55.680Z,97.99
2016-04-14T08:20:55.697Z,97.6
2016-04-14T08:21:55.669Z,97.89
2016-04-14T08:22:55.672Z,98.36
2016-04-14T08:23:55.658Z,97.89
2016-04-14T08:24:55.661Z,98.46
2016-04-14T08:25:55.648Z,98.36
2016-04-14T08:26:55.651Z,98.27
2016-04-14T08:27:55.654Z,98.27
2016-04-14T08:28:55.641Z,98.18
2016-04-14T08:29:55.644Z,97.99
2016-04-14T08:30:55.646Z,98.18
2016-04-14T08:31:55.634Z,98.27
2016-04-14T08:32:55.668Z,98.08
2016-04-14T08:33:55.623Z,98.36
2016-04-14T08:34:55.626Z,98.18
2016-04-14T08:35:55.628Z,98.27
2016-04-14T08:36:55.608Z,98.18
2016-04-14T08:37:56.157Z,98.08
2016-04-14T08:38:55.645Z,98.18
2016-04-14T08:39:55.617Z,98.18
2016-04-14T08:40:55.603Z,98.18
2016-04-14T08:41:55.606Z,97.99
2016-04-14T08:42:55.593Z,98.36
2016-04-14T08:43:55.611Z,97.89
2016-04-14T08:44:55.598Z,98.46
2016-04-14T08:45:55.585Z,98.27
2016-04-14T08:46:55.588Z,98.03
2016-04-14T08:47:55.575Z,98.22
2016-04-14T08:48:55.577Z,98.41
2016-04-14T08:49:55.564Z,98.32
2016-04-14T08:50:55.426Z,98.32
2016-04-14T08:51:55.569Z,98.22
2016-04-14T08:52:55.572Z,98.32
2016-04-14T08:53:55.560Z,98.27
2016-04-14T08:54:55.578Z,98.51
2016-04-14T08:56:55.958Z,98.51
2016-04-14T08:57:56.054Z,98.03
2016-04-14T08:58:55.542Z,98.03
2016-04-14T08:59:55.560Z,98.18
2016-04-14T09:00:55.548Z,98.08
2016-04-14T09:01:55.551Z,98.18
2016-04-14T09:02:55.554Z,97.99
2016-04-14T09:03:55.540Z,98.42
2016-04-14T09:04:56.230Z,98.22
2016-04-14T09:05:55.530Z,97.94
2016-04-14T09:06:56.142Z,98.03
2016-04-14T09:07:56.176Z,98.13
2016-04-14T09:08:55.522Z,98.27
2016-04-14T09:09:55.525Z,98.37
2016-04-14T09:10:55.511Z,97.61
2016-04-14T09:11:55.748Z,98.22
2016-04-14T09:12:55.830Z,98.13
2016-04-14T09:13:55.535Z,98.08
2016-04-14T09:14:56.211Z,98.27
2016-04-14T09:15:55.509Z,98.18
2016-04-14T09:16:55.747Z,98.47
2016-04-14T09:17:55.515Z,97.99
2016-04-14T09:18:55.517Z,97.99
2016-04-14T09:19:55.505Z,97.99
2016-04-14T09:20:56.319Z,98.18
2016-04-14T09:21:55.494Z,98.08
2016-04-14T09:22:55.996Z,98.08
2016-04-14T09:23:56.030Z,98.32
2016-04-14T09:24:55.502Z,98.47
2016-04-14T09:25:55.490Z,98.37
2016-04-14T09:26:55.554Z,98.37
2016-04-14T09:27:55.777Z,98.56
2016-04-14T09:28:55.482Z,98.47
2016-04-14T09:29:55.516Z,98.37
2016-04-14T09:30:55.487Z,98.66
2016-04-14T09:31:55.490Z,98.47
2016-04-14T09:32:55.493Z,98.66
2016-04-14T09:33:55.479Z,98.23
2016-04-14T09:34:55.482Z,98.71
2016-04-14T09:35:55.485Z,98.71
2016-04-14T09:36:55.504Z,98.56
2016-04-14T09:37:55.476Z,98.08
2016-04-14T09:38:55.493Z,98.52
2016-04-14T09:39:55.496Z,98.08
2016-04-14T09:40:55.483Z,97.75
2016-04-14T09:41:55.501Z,97.89
2016-04-14T09:42:55.488Z,97.94
2016-04-14T09:43:55.475Z,97.8
2016-04-14T09:44:55.478Z,97.71
2016-04-14T09:45:55.464Z,97.71
2016-04-14T09:46:55.467Z,97.99
2016-04-14T09:47:55.470Z,97.42
2016-04-14T09:48:55.458Z,97.13
2016-04-14T09:49:55.475Z,97.22
2016-04-14T09:50:55.463Z,97.51
2016-04-14T09:51:55.466Z,97.61
2016-04-14T09:52:55.468Z,97.42
2016-04-14T09:53:55.455Z,97.13
2016-04-14T09:54:55.473Z,97.13
2016-04-14T09:55:55.460Z,97.13
2016-04-14T09:56:55.463Z,97.32
2016-04-14T09:57:55.451Z,97.03
2016-04-14T09:58:55.453Z,97.18
2016-04-14T09:59:55.440Z,97.42
2016-04-14T10:00:55.459Z,97.13
2016-04-14T10:01:55.446Z,97.42
2016-04-14T10:02:55.448Z,96.94
2016-04-14T10:03:55.435Z,97.32
2016-04-14T10:04:55.438Z,96.94
2016-04-14T10:05:55.440Z,97.03
2016-04-14T10:06:55.444Z,96.94
2016-04-14T10:07:55.431Z,97.27
2016-04-14T10:08:55.434Z,97.37
2016-04-14T10:09:55.421Z,97.47
2016-04-14T10:10:55.439Z,97.47
2016-04-14T10:11:55.457Z,97.18
2016-04-14T10:12:55.428Z,97.18
2016-04-14T10:13:55.415Z,96.98
2016-04-14T10:14:55.777Z,97.37
2016-04-14T10:15:55.420Z,96.98
2016-04-14T10:16:55.423Z,97.47
2016-04-14T10:17:55.411Z,96.89
2016-04-14T10:18:55.414Z,96.89
2016-04-14T10:19:55.431Z,97.37
2016-04-14T10:20:55.419Z,97.56
2016-04-14T10:21:55.405Z,97.23
2016-04-14T10:22:55.408Z,97.32
2016-04-14T10:23:55.458Z,97.23
2016-04-14T10:24:55.538Z,97.23
2016-04-14T10:25:55.401Z,97.08
2016-04-14T10:26:55.403Z,97.18
2016-04-14T10:27:56.156Z,97.18
2016-04-14T10:28:55.393Z,97.18
2016-04-14T10:29:56.255Z,97.18
2016-04-14T10:30:56.368Z,97.56
2016-04-14T10:31:56.104Z,97.18
2016-04-14T10:32:55.388Z,97.47
2016-04-14T10:33:55.860Z,97.47
2016-04-14T10:34:56.003Z,97.18
2016-04-14T10:35:55.397Z,97.18
2016-04-14T10:36:55.368Z,97.47
2016-04-14T10:37:55.371Z,97.47
2016-04-14T10:38:55.374Z,96.98
2016-04-14T10:39:56.173Z,97.37
2016-04-14T10:40:55.770Z,97.47
2016-04-14T10:41:56.194Z,96.98
2016-04-14T10:42:55.900Z,96.98
2016-04-14T10:43:55.370Z,97.37
2016-04-14T10:44:55.671Z,97.18
2016-04-14T10:45:55.814Z,97.08
2016-04-14T10:46:55.379Z,97.27
2016-04-14T10:47:55.367Z,97.47
2016-04-14T10:48:55.369Z,97.37
2016-04-14T10:49:55.356Z,97.03
2016-04-14T10:50:55.358Z,97.56
2016-04-14T10:51:55.377Z,97.47
2016-04-14T10:52:55.363Z,97.13
2016-04-14T10:53:55.351Z,96.98
2016-04-14T10:54:55.354Z,97.18
2016-04-14T10:55:55.357Z,97.18
2016-04-14T10:56:55.344Z,97.18
2016-04-14T10:57:55.346Z,97.18
2016-04-14T10:58:55.349Z,97.18
2016-04-14T10:59:55.335Z,97.18
2016-04-14T11:00:55.354Z,97.18
2016-04-14T11:01:55.341Z,97.47
2016-04-14T11:02:55.216Z,97.08
2016-04-14T11:03:55.332Z,97.08
2016-04-14T11:04:55.335Z,97.08
2016-04-14T11:05:55.321Z,97.18
2016-04-14T11:06:55.340Z,97.47
2016-04-14T11:07:57.029Z,97.18
2016-04-14T11:08:55.329Z,96.98
2016-04-14T11:09:55.332Z,97.18
2016-04-14T11:10:55.334Z,97.42
2016-04-14T11:11:55.318Z,97.03
2016-04-14T11:12:55.321Z,96.94
2016-04-14T11:13:55.308Z,97.03
2016-04-14T11:14:55.312Z,96.94
2016-04-14T11:15:55.314Z,97.13
2016-04-14T11:16:55.301Z,97.22
2016-04-14T11:17:55.319Z,97.08
2016-04-14T11:18:55.166Z,97.22
2016-04-14T11:19:55.294Z,97.51
2016-04-14T11:20:55.296Z,97.18
2016-04-14T11:21:55.283Z,97.42
2016-04-14T11:22:55.316Z,97.42
2016-04-14T11:23:55.288Z,97.13
2016-04-14T11:24:55.291Z,97.32
2016-04-14T11:25:55.278Z,97.42
2016-04-14T11:26:55.297Z,97.32
2016-04-14T11:27:55.283Z,97.51
2016-04-14T11:28:55.286Z,97.42
2016-04-14T11:29:55.273Z,97.32
2016-04-14T11:30:55.276Z,97.42
2016-04-14T11:31:55.263Z,97.32
2016-04-14T11:32:55.266Z,97.42
2016-04-14T11:33:55.269Z,98.03
2016-04-14T11:34:55.270Z,98.03
2016-04-14T11:35:55.414Z,97.75
2016-04-14T11:37:09.450Z,97.94
2016-04-14T11:37:55.703Z,97.66
2016-04-14T11:38:55.250Z,97.85
2016-04-14T11:39:55.455Z,97.94
2016-04-14T11:40:55.411Z,98.03
2016-04-14T11:41:55.242Z,97.8
2016-04-14T11:42:55.245Z,97.8
2016-04-14T11:43:55.953Z,97.8
2016-04-14T11:44:56.113Z,98.18
2016-04-14T11:45:55.253Z,98.18
2016-04-14T11:46:55.240Z,98.18
2016-04-14T11:47:55.243Z,98.18
2016-04-14T11:49:56.938Z,98.23
2016-04-14T11:50:56.258Z,98.71
2016-04-14T11:51:55.227Z,98.57
2016-04-14T11:52:55.402Z,98.66
2016-04-14T11:53:55.217Z,98.38
2016-04-14T11:54:55.235Z,98.66
2016-04-14T11:55:55.238Z,98.52
2016-04-14T11:56:55.412Z,98.52
2016-04-14T11:57:55.228Z,98.61
2016-04-14T11:58:55.230Z,98.43
2016-04-14T11:59:56.111Z,98.33
2016-04-14T12:00:56.239Z,98.28
2016-04-14T12:01:55.629Z,98.09
2016-04-14T12:02:55.226Z,98.47
2016-04-14T12:03:55.431Z,98.38
2016-04-14T12:04:55.231Z,99.05
2016-04-14T12:05:55.233Z,99.05
2016-04-14T12:06:55.220Z,98.76
2016-04-14T12:07:55.223Z,99.15
2016-04-14T12:08:55.241Z,98.43
2016-04-14T12:09:55.244Z,98.81
2016-04-14T12:10:55.215Z,98.43
2016-04-14T12:11:55.219Z,98.52
2016-04-14T12:12:54.502Z,98.81
2016-04-14T12:13:55.208Z,98.9
2016-04-14T12:14:55.241Z,98.75
2016-04-14T12:15:55.213Z,98.47
2016-04-14T12:16:55.216Z,98.47
2016-04-14T12:17:55.203Z,98.13
2016-04-14T12:18:55.238Z,98.33
2016-04-14T12:19:55.224Z,98.61
2016-04-14T12:20:55.227Z,98.57
2016-04-14T12:21:55.229Z,97.89
2016-04-14T12:22:55.216Z,97.99
2016-04-14T12:23:55.219Z,97.89
2016-04-14T12:24:55.221Z,97.8
2016-04-14T12:25:55.224Z,97.89
2016-04-14T12:26:55.212Z,98.08
2016-04-14T12:27:55.214Z,97.66
2016-04-14T12:28:55.218Z,97.66
2016-04-14T12:29:55.220Z,98.08
2016-04-14T12:30:55.223Z,97.52
2016-04-14T12:31:55.225Z,97.18
2016-04-14T12:32:55.212Z,97.18
2016-04-14T12:33:55.215Z,97.18
2016-04-14T12:34:55.202Z,96.94
2016-04-14T12:35:55.220Z,96.84
2016-04-14T12:36:55.222Z,96.66
2016-04-14T12:37:55.194Z,96.56
2016-04-14T12:38:55.197Z,96.41
2016-04-14T12:39:55.200Z,96.41
2016-04-14T12:40:55.203Z,97.27
2016-04-14T12:41:55.189Z,97.08
2016-04-14T12:42:55.192Z,96.84
2016-04-14T12:43:55.194Z,96.84
2016-04-14T12:44:55.182Z,97.51
2016-04-14T12:45:55.200Z,97.37
2016-04-14T12:46:55.188Z,97.37
2016-04-14T12:47:55.191Z,97.08
2016-04-14T12:48:55.177Z,97.56
2016-04-14T12:49:55.196Z,97.47
2016-04-14T12:50:55.166Z,97.56
2016-04-14T12:51:55.185Z,97.37
2016-04-14T12:52:56.081Z,97.66
2016-04-14T12:53:55.284Z,98.08
2016-04-14T12:54:55.177Z,98.08
2016-04-14T12:55:55.180Z,97.52
2016-04-14T12:56:55.621Z,97.61
2016-04-14T12:57:55.171Z,97.85
2016-04-14T12:58:55.173Z,97.66
2016-04-14T12:59:55.160Z,97.85
2016-04-14T13:00:55.162Z,97.94
2016-04-14T13:01:55.165Z,97.52
2016-04-14T13:02:55.167Z,97.71
2016-04-14T13:03:55.170Z,98.09
2016-04-14T13:05:09.347Z,97.66